Time;durP1;ratioP1;P1;durP2;ratioP2;P2;SDS_P1;SDS_P2;PMS_P1;PMS_P2;Temp;Humidity;BMP_temperature;BMP_pressure;BME280_temperature;BME280_humidity;BME280_pressure;Samples;Min_cycle;Max_cycle;Signal;HPM_P1;HPM_P2
2020/12/03 00:01:59;;;;;;;;;16.75;15.75;;;;;11.19;52.47;98531.19;4859855;28;102541;-78
2020/12/03 00:04:25;;;;;;;;;18.50;15.75;;;;;11.18;52.24;98529.50;4883689;28;104155;-78
2020/12/03 00:06:54;;;;;;;;;18.75;15.00;;;;;11.17;52.43;98517.84;4857733;28;102934;-78
2020/12/03 00:09:21;;;;;;;;;20.25;16.50;;;;;11.15;52.42;98509.13;4841629;28;102658;-78
2020/12/03 00:11:55;;;;;;;;;22.00;17.00;;;;;11.13;52.29;98499.53;4867471;28;103566;-78
2020/12/03 00:14:21;;;;;;;;;18.00;15.75;;;;;11.14;52.31;98502.03;4878697;28;103813;-78
2020/12/03 00:16:49;;;;;;;;;19.75;15.50;;;;;11.12;52.12;98501.41;4859660;28;102599;-78
2020/12/03 00:19:17;;;;;;;;;18.75;16.00;;;;;11.13;52.23;98502.25;4861958;28;102490;-78
2020/12/03 00:21:46;;;;;;;;;19.75;14.00;;;;;11.14;52.34;98495.78;4867313;28;105069;-78
2020/12/03 00:24:19;;;;;;;;;20.75;13.25;;;;;11.11;52.23;98491.63;4863149;28;110022;-78
2020/12/03 00:26:46;;;;;;;;;16.75;15.50;;;;;11.10;52.01;98486.44;4858060;28;102694;-78
2020/12/03 00:29:13;;;;;;;;;19.00;15.50;;;;;11.08;51.94;98481.22;4862761;28;103633;-78
2020/12/03 00:31:45;;;;;;;;;19.50;16.50;;;;;11.10;52.24;98472.91;4867620;28;102282;-78
2020/12/03 00:34:11;;;;;;;;;19.25;17.75;;;;;11.12;51.89;98465.41;4860983;28;108764;-78
2020/12/03 00:36:38;;;;;;;;;17.25;14.50;;;;;11.10;52.10;98462.91;4866528;28;102512;-78
2020/12/03 00:39:07;;;;;;;;;20.50;16.75;;;;;11.05;52.09;98459.16;4854981;28;104455;-78
2020/12/03 00:41:34;;;;;;;;;18.25;16.00;;;;;11.04;52.27;98463.72;4863842;28;102326;-78
2020/12/03 00:44:02;;;;;;;;;17.00;15.50;;;;;11.02;52.20;98460.41;4860073;28;104112;-78
2020/12/03 00:46:29;;;;;;;;;17.75;17.25;;;;;10.99;52.30;98452.69;4860934;28;102864;-78
2020/12/03 00:48:56;;;;;;;;;15.00;12.25;;;;;10.98;52.30;98453.75;4856904;28;102661;-78
2020/12/03 00:51:23;;;;;;;;;14.75;14.75;;;;;10.99;52.24;98444.56;4859717;28;102464;-78
2020/12/03 00:53:51;;;;;;;;;17.25;14.50;;;;;10.99;52.17;98451.84;4864020;28;103990;-78
2020/12/03 00:56:18;;;;;;;;;18.75;16.25;;;;;10.97;52.16;98448.53;4857938;28;104847;-78
2020/12/03 00:58:45;;;;;;;;;20.75;15.00;;;;;10.99;52.11;98443.75;4850249;28;102874;-78
2020/12/03 01:01:13;;;;;;;;;17.25;14.00;;;;;10.98;52.04;98439.38;4857403;28;103861;-78
2020/12/03 01:03:40;;;;;;;;;18.25;14.25;;;;;10.97;52.09;98429.59;4864855;28;108248;-78
2020/12/03 01:06:06;;;;;;;;;15.25;12.25;;;;;10.94;51.77;98433.53;4860354;28;102226;-78
2020/12/03 01:08:33;;;;;;;;;17.00;10.25;;;;;10.95;52.04;98428.97;4858621;28;102447;-78
2020/12/03 01:11:00;;;;;;;;;12.00;11.50;;;;;10.95;51.87;98426.25;4863553;28;103013;-78
2020/12/03 01:13:26;;;;;;;;;18.50;13.50;;;;;10.94;51.81;98432.72;4856277;28;104072;-78
2020/12/03 01:15:53;;;;;;;;;17.25;12.50;;;;;10.95;51.77;98423.56;4856692;28;102778;-78
2020/12/03 01:18:20;;;;;;;;;16.50;13.50;;;;;10.92;51.92;98419.41;4860595;28;102185;-78
2020/12/03 01:20:47;;;;;;;;;15.50;13.75;;;;;10.89;51.81;98416.28;4856579;28;103502;-78
2020/12/03 01:23:13;;;;;;;;;20.50;15.25;;;;;10.87;51.97;98407.53;4861590;28;105359;-78
2020/12/03 01:25:42;;;;;;;;;13.25;12.50;;;;;10.86;52.09;98405.88;4860429;28;103489;-78
2020/12/03 01:28:09;;;;;;;;;12.00;11.25;;;;;10.86;52.19;98408.56;4856766;28;102185;-78
2020/12/03 01:30:36;;;;;;;;;15.50;12.75;;;;;10.86;52.02;98398.59;4859560;28;102313;-78
2020/12/03 01:33:03;;;;;;;;;15.75;12.00;;;;;10.86;51.81;98389.63;4854140;28;104108;-78
2020/12/03 01:35:29;;;;;;;;;16.25;11.50;;;;;10.84;51.78;98391.72;4857816;28;102512;-78
2020/12/03 01:37:56;;;;;;;;;13.00;11.50;;;;;10.78;51.88;98369.03;4862820;28;103184;-78
2020/12/03 01:40:24;;;;;;;;;13.25;11.25;;;;;10.81;51.72;98365.13;4861250;28;103184;-78
2020/12/03 01:42:51;;;;;;;;;13.25;10.00;;;;;10.82;51.70;98374.88;4864931;28;105683;-78
2020/12/03 01:45:53;;;;;;;;;18.25;13.00;;;;;10.80;51.95;98374.25;4859018;28;103793;-78
2020/12/03 01:48:41;;;;;;;;;17.00;12.50;;;;;10.80;51.74;98385.91;4795877;28;102297;-78
2020/12/03 01:51:25;;;;;;;;;16.75;12.00;;;;;10.78;51.84;98397.97;4843880;28;103902;-78
2020/12/03 01:53:54;;;;;;;;;19.75;13.25;;;;;10.80;51.48;98404.00;4799655;28;108826;-78
2020/12/03 01:56:56;;;;;;;;;14.50;12.25;;;;;10.74;51.69;98395.69;4863466;28;103692;-78
2020/12/03 01:59:23;;;;;;;;;12.75;11.25;;;;;10.72;51.75;98397.75;4799397;28;102756;-78
2020/12/03 02:01:54;;;;;;;;;13.00;12.25;;;;;10.72;52.00;98383.38;4847841;28;102564;-78
2020/12/03 02:04:21;;;;;;;;;11.25;10.75;;;;;10.70;51.95;98369.25;4869798;28;103372;-78
2020/12/03 02:06:57;;;;;;;;;15.00;12.50;;;;;10.71;51.62;98371.75;4868718;28;101764;-78
2020/12/03 02:09:24;;;;;;;;;17.75;13.00;;;;;10.68;52.08;98366.75;4860403;28;104518;-78
2020/12/03 02:11:52;;;;;;;;;12.75;12.00;;;;;10.67;52.01;98365.09;4873727;28;102174;-78
2020/12/03 02:14:20;;;;;;;;;15.75;11.00;;;;;10.68;51.45;98357.81;4873240;28;103456;-78
2020/12/03 02:16:52;;;;;;;;;12.75;12.00;;;;;10.63;51.74;98355.72;4881133;28;104020;-78
2020/12/03 02:19:27;;;;;;;;;10.75;10.75;;;;;10.64;52.05;98351.16;4871630;28;101810;-78
2020/12/03 02:22:06;;;;;;;;;10.25;10.00;;;;;10.64;51.76;98345.75;4872854;28;101836;-78
2020/12/03 02:24:35;;;;;;;;;9.00;6.25;;;;;10.60;51.87;98339.94;4863229;28;104694;-78
2020/12/03 02:27:03;;;;;;;;;11.75;11.00;;;;;10.61;51.96;98329.94;4855663;28;102544;-78
2020/12/03 02:29:30;;;;;;;;;10.00;10.00;;;;;10.59;51.78;98330.16;4864073;28;103614;-78
2020/12/03 02:31:57;;;;;;;;;12.50;10.75;;;;;10.57;51.82;98340.34;4852430;28;102804;-78
2020/12/03 02:34:25;;;;;;;;;11.00;9.25;;;;;10.55;51.72;98334.31;4859138;28;103176;-78
2020/12/03 02:36:59;;;;;;;;;12.50;11.00;;;;;10.57;51.49;98353.88;4859849;28;105241;-78
2020/12/03 02:39:27;;;;;;;;;12.25;10.50;;;;;10.58;51.75;98354.69;4860590;28;102179;-78
2020/12/03 02:41:57;;;;;;;;;12.75;10.75;;;;;10.59;51.56;98357.19;4857219;28;102526;-78
2020/12/03 02:44:23;;;;;;;;;13.50;11.50;;;;;10.60;51.34;98361.56;4856176;28;107624;-82
2020/12/03 02:46:50;;;;;;;;;11.50;10.00;;;;;10.61;51.46;98355.13;4852526;28;102169;-81
2020/12/03 02:49:17;;;;;;;;;11.75;10.75;;;;;10.62;51.51;98361.34;4860970;28;102174;-81
2020/12/03 02:51:43;;;;;;;;;9.50;8.25;;;;;10.57;51.51;98370.09;4871096;28;102274;-81
2020/12/03 02:54:11;;;;;;;;;14.50;11.25;;;;;10.55;51.48;98372.16;4853055;28;108830;-82
2020/12/03 02:56:38;;;;;;;;;14.50;11.00;;;;;10.55;51.82;98358.63;4861240;28;102683;-82
2020/12/03 02:59:05;;;;;;;;;9.75;9.00;;;;;10.56;51.41;98357.59;4854267;28;102110;-82
2020/12/03 03:01:32;;;;;;;;;10.75;9.50;;;;;10.54;51.68;98342.59;4849714;28;102224;-81
2020/12/03 03:04:02;;;;;;;;;11.50;9.50;;;;;10.51;51.32;98341.16;4860363;28;104111;-81
2020/12/03 03:06:32;;;;;;;;;8.25;8.00;;;;;10.48;51.35;98336.19;4856019;28;103679;-81
2020/12/03 03:08:59;;;;;;;;;11.25;9.00;;;;;10.47;51.26;98337.22;4855084;28;109475;-82
2020/12/03 03:11:26;;;;;;;;;10.25;9.75;;;;;10.46;51.75;98335.53;4858138;28;102710;-81
2020/12/03 03:13:52;;;;;;;;;10.25;8.50;;;;;10.45;51.70;98344.69;4859044;28;104557;-82
2020/12/03 03:16:19;;;;;;;;;8.75;7.25;;;;;10.44;51.93;98339.50;4847486;28;103040;-78
2020/12/03 03:18:45;;;;;;;;;10.75;10.00;;;;;10.41;51.41;98332.63;4852903;28;102351;-78
2020/12/03 03:21:12;;;;;;;;;19.25;12.75;;;;;10.42;51.79;98342.41;4862106;28;105181;-78
2020/12/03 03:23:39;;;;;;;;;11.75;9.25;;;;;10.41;51.64;98340.72;4837636;28;105564;-78
2020/12/03 03:26:05;;;;;;;;;11.00;9.25;;;;;10.42;51.53;98339.69;4836011;28;105307;-78
2020/12/03 03:28:32;;;;;;;;;13.50;11.75;;;;;10.42;51.57;98346.97;4823688;28;104693;-78
2020/12/03 03:30:59;;;;;;;;;12.00;9.75;;;;;10.42;51.54;98346.97;4842077;28;102294;-78
2020/12/03 03:33:28;;;;;;;;;10.75;10.00;;;;;10.39;51.19;98333.88;4859705;28;104192;-78
2020/12/03 03:35:55;;;;;;;;;14.25;9.00;;;;;10.38;51.47;98343.84;4856999;28;102521;-78
2020/12/03 03:38:22;;;;;;;;;13.00;9.00;;;;;10.36;51.83;98345.91;4858931;28;103970;-78
2020/12/03 03:40:48;;;;;;;;;9.00;8.00;;;;;10.34;51.46;98331.81;4854918;28;102323;-78
2020/12/03 03:43:15;;;;;;;;;11.75;10.00;;;;;10.32;51.40;98317.66;4858748;28;104058;-78
2020/12/03 03:45:41;;;;;;;;;11.50;10.25;;;;;10.31;51.28;98312.47;4856715;28;103782;-81
2020/12/03 03:48:08;;;;;;;;;10.75;8.00;;;;;10.29;51.49;98296.44;4857517;28;102290;-82
2020/12/03 03:50:35;;;;;;;;;9.00;7.25;;;;;10.30;52.01;98292.72;4862270;28;105518;-82
2020/12/03 03:53:01;;;;;;;;;10.50;8.75;;;;;10.29;51.42;98291.88;4856347;28;104081;-82
2020/12/03 03:55:28;;;;;;;;;11.50;9.25;;;;;10.28;51.28;98287.50;4851947;28;102597;-81
2020/12/03 03:57:54;;;;;;;;;10.00;8.75;;;;;10.33;51.04;98292.28;4849705;28;102237;-82
2020/12/03 04:00:21;;;;;;;;;10.25;9.75;;;;;10.32;51.24;98274.41;4850512;28;103712;-81
2020/12/03 04:02:48;;;;;;;;;9.50;8.75;;;;;10.35;51.23;98267.78;4843340;28;104173;-81
2020/12/03 04:05:15;;;;;;;;;8.75;8.75;;;;;10.34;51.18;98248.03;4847897;28;102187;-80
2020/12/03 04:07:44;;;;;;;;;7.25;5.75;;;;;10.33;51.27;98232.84;4854621;28;104775;-82
2020/12/03 04:10:11;;;;;;;;;9.50;8.25;;;;;10.31;51.06;98234.94;4870532;28;102463;-81
2020/12/03 04:12:38;;;;;;;;;10.00;7.75;;;;;10.34;51.00;98231.81;4856222;28;106198;-82
2020/12/03 04:15:05;;;;;;;;;9.50;8.50;;;;;10.33;51.06;98219.34;4854338;28;103354;-82
2020/12/03 04:17:36;;;;;;;;;5.00;4.00;;;;;10.34;50.84;98202.09;4874632;28;105345;-81
2020/12/03 04:20:05;;;;;;;;;8.75;8.00;;;;;10.35;50.97;98192.94;4852737;28;102803;-82
2020/12/03 04:22:31;;;;;;;;;5.50;4.75;;;;;10.40;51.12;98190.41;4862444;28;104231;-82
2020/12/03 04:24:58;;;;;;;;;3.75;1.75;;;;;10.45;50.79;98193.31;4858840;28;104872;-81
2020/12/03 04:27:25;;;;;;;;;4.50;4.50;;;;;10.49;51.05;98199.16;4863190;28;104213;-82
2020/12/03 04:29:52;;;;;;;;;6.00;5.75;;;;;10.52;50.74;98187.91;4857032;28;102568;-81
2020/12/03 04:32:18;;;;;;;;;8.00;6.00;;;;;10.54;50.58;98186.66;4856502;28;104078;-81
2020/12/03 04:51:27;;;;;;;;;6.50;4.50;;;;;10.53;50.77;98212.06;915982;23;102101;-96
2020/12/03 04:54:22;;;;;;;;;4.25;3.75;;;;;10.56;50.65;98217.03;4615994;28;108391;-96
2020/12/03 04:57:21;;;;;;;;;8.00;7.00;;;;;10.64;49.80;98224.06;4750986;28;101927;-96
2020/12/03 05:00:09;;;;;;;;;6.00;5.00;;;;;10.57;50.30;98207.88;4737118;28;103079;-96
2020/12/03 05:03:17;;;;;;;;;5.00;4.25;;;;;10.62;50.20;98216.19;4766685;28;103359;-96
2020/12/03 05:06:16;;;;;;;;;8.00;7.00;;;;;10.53;50.32;98205.81;4654809;28;105778;-96
2020/12/03 05:09:46;;;;;;;;;7.50;6.00;;;;;10.49;50.10;98199.97;4634977;28;101429;-96
2020/12/03 12:50:06;;;;;;;;;10.50;9.25;;;;;10.13;49.48;97805.19;4898090;28;102430;-79
2020/12/03 12:52:33;;;;;;;;;10.25;9.50;;;;;10.15;48.77;97801.22;4893545;28;102633;-79
2020/12/03 12:55:00;;;;;;;;;9.00;8.25;;;;;10.15;49.25;97798.53;4894500;28;104040;-79
2020/12/03 12:57:27;;;;;;;;;12.00;10.25;;;;;10.18;49.24;97792.69;4876335;28;103336;-78
2020/12/03 12:59:54;;;;;;;;;9.25;6.75;;;;;10.19;49.29;97793.50;4892114;28;107661;-78
2020/12/03 13:02:21;;;;;;;;;9.50;8.75;;;;;10.19;49.01;97786.25;4890039;28;102502;-78
2020/12/03 13:04:48;;;;;;;;;9.25;6.50;;;;;10.19;49.23;97777.31;4904311;28;104016;-79
2020/12/03 13:07:14;;;;;;;;;3.00;2.75;;;;;10.20;49.20;97784.38;4903765;28;102412;-79
2020/12/03 13:09:41;;;;;;;;;10.75;8.75;;;;;10.18;48.93;97776.47;4893598;28;102169;-78
2020/12/03 13:12:08;;;;;;;;;11.00;9.00;;;;;10.18;48.85;97787.28;4898440;28;105416;-78
2020/12/03 13:14:34;;;;;;;;;12.25;10.50;;;;;10.18;49.05;97791.84;4898505;28;104523;-78
2020/12/03 13:17:01;;;;;;;;;11.25;9.00;;;;;10.17;49.01;97790.22;4900286;28;102655;-78
2020/12/03 13:19:28;;;;;;;;;11.25;8.25;;;;;10.17;49.15;97779.41;4896418;28;102273;-79
2020/12/03 13:21:57;;;;;;;;;9.75;8.25;;;;;10.16;49.42;97772.34;4904308;28;102622;-79
2020/12/03 13:24:24;;;;;;;;;8.75;8.50;;;;;10.16;49.25;97780.44;4895815;28;108634;-79
2020/12/03 13:26:52;;;;;;;;;5.00;5.00;;;;;10.14;49.28;97774.41;4901639;28;102594;-78
2020/12/03 13:29:19;;;;;;;;;6.25;5.75;;;;;10.14;49.18;97771.69;4899651;28;103797;-78
2020/12/03 13:31:47;;;;;;;;;11.75;9.75;;;;;10.12;49.12;97763.84;4904132;28;103050;-79
2020/12/03 13:34:14;;;;;;;;;10.00;9.00;;;;;10.13;49.52;97761.97;4894445;28;108187;-79
2020/12/03 13:36:42;;;;;;;;;11.25;7.50;;;;;10.12;49.25;97746.78;4895032;28;102284;-78
2020/12/03 13:39:08;;;;;;;;;10.50;9.50;;;;;10.10;49.27;97744.31;4899169;28;102206;-79
2020/12/03 13:41:35;;;;;;;;;10.75;8.00;;;;;10.12;49.18;97746.78;4901869;28;102606;-79
2020/12/03 13:44:02;;;;;;;;;5.00;4.75;;;;;10.10;49.11;97747.00;4896655;28;104582;-79
2020/12/03 13:46:35;;;;;;;;;8.75;8.00;;;;;10.09;49.53;97744.50;4898604;28;102270;-78
2020/12/03 13:49:02;;;;;;;;;7.75;6.25;;;;;10.09;49.25;97742.63;4908700;28;102272;-78
2020/12/03 13:51:29;;;;;;;;;9.00;8.25;;;;;10.09;49.32;97739.94;4894261;28;102318;-79
2020/12/03 13:53:56;;;;;;;;;10.00;8.00;;;;;10.08;49.17;97737.47;4897551;28;104085;-78
2020/12/03 13:56:22;;;;;;;;;12.00;8.00;;;;;10.08;49.46;97742.88;4901047;28;102589;-78
2020/12/03 13:58:49;;;;;;;;;8.25;8.00;;;;;10.06;49.30;97734.16;4902808;28;102505;-79
2020/12/03 14:01:16;;;;;;;;;8.25;5.75;;;;;10.05;49.19;97733.31;4908506;28;102197;-79
2020/12/03 14:03:43;;;;;;;;;9.25;6.75;;;;;10.05;49.45;97729.78;4893320;28;104246;-79
2020/12/03 14:06:09;;;;;;;;;11.50;6.25;;;;;10.04;49.40;97726.25;4904646;28;103626;-79
2020/12/03 14:08:36;;;;;;;;;9.75;8.75;;;;;10.03;49.84;97719.22;4902001;28;102235;-79
2020/12/03 14:11:03;;;;;;;;;10.50;9.25;;;;;10.03;49.65;97721.09;4907626;28;102154;-79
2020/12/03 14:13:29;;;;;;;;;9.25;8.75;;;;;10.03;49.61;97707.59;4905939;28;104268;-79
2020/12/03 14:15:56;;;;;;;;;6.50;6.25;;;;;10.04;49.52;97703.84;4907162;28;102497;-77
2020/12/03 14:18:23;;;;;;;;;8.75;6.50;;;;;10.04;49.20;97701.16;4898896;28;102172;-76
2020/12/03 14:20:49;;;;;;;;;7.50;5.50;;;;;10.06;49.23;97699.03;4904502;28;104010;-76
2020/12/03 14:23:16;;;;;;;;;9.25;6.50;;;;;10.06;48.96;97699.03;4909344;28;108853;-77
2020/12/03 14:25:43;;;;;;;;;9.25;7.75;;;;;10.07;49.35;97700.69;4907218;28;102530;-77
2020/12/03 14:28:09;;;;;;;;;8.00;6.25;;;;;10.08;49.42;97710.47;4897923;28;102558;-77
2020/12/03 14:30:36;;;;;;;;;9.75;7.00;;;;;10.07;49.30;97693.44;4905608;28;102460;-77
2020/12/03 14:33:03;;;;;;;;;7.25;7.25;;;;;10.07;49.19;97693.44;4897605;28;103881;-76
2020/12/03 14:35:29;;;;;;;;;8.75;8.75;;;;;10.08;49.31;97696.97;4892906;28;103990;-77
2020/12/03 14:37:56;;;;;;;;;10.25;9.00;;;;;10.07;49.13;97698.00;4899262;28;102271;-76
2020/12/03 14:40:23;;;;;;;;;8.00;8.00;;;;;10.08;49.15;97700.50;4903994;28;102223;-76
2020/12/03 14:42:49;;;;;;;;;8.75;8.75;;;;;10.08;49.18;97700.50;4898645;28;103811;-76
2020/12/03 14:45:16;;;;;;;;;9.00;8.00;;;;;10.10;49.46;97716.47;4901602;28;102627;-77
2020/12/03 14:47:43;;;;;;;;;9.75;7.50;;;;;10.11;49.14;97704.63;4901917;28;102429;-77
2020/12/03 14:50:14;;;;;;;;;8.25;6.00;;;;;10.10;49.40;97681.34;4895138;28;107870;-77
2020/12/03 14:52:48;;;;;;;;;10.00;6.00;;;;;10.10;49.12;97678.66;4893661;28;104022;-77
2020/12/03 14:55:15;;;;;;;;;11.00;9.75;;;;;10.10;49.27;97702.94;4899601;28;106976;-77
2020/12/03 14:57:43;;;;;;;;;8.75;7.00;;;;;10.12;49.00;97700.88;4890816;28;102614;-77
2020/12/03 15:00:10;;;;;;;;;9.25;7.25;;;;;10.11;49.12;97688.41;4889732;28;103928;-77
2020/12/03 15:02:36;;;;;;;;;9.25;6.50;;;;;10.09;49.22;97682.38;4891751;28;103778;-77
2020/12/03 15:05:06;;;;;;;;;9.00;6.50;;;;;10.10;49.30;97675.94;4896361;28;103655;-76
2020/12/03 15:07:33;;;;;;;;;11.25;8.25;;;;;10.10;49.15;97686.75;4902350;28;102203;-77
2020/12/03 15:10:08;;;;;;;;;11.50;9.00;;;;;10.09;48.67;97680.50;4894185;28;107402;-76
2020/12/03 15:12:35;;;;;;;;;11.00;10.00;;;;;10.09;49.13;97669.72;4903332;28;104063;-77
2020/12/03 15:15:02;;;;;;;;;9.00;8.50;;;;;10.07;49.49;97661.03;4897347;28;105446;-77
2020/12/03 15:17:28;;;;;;;;;11.50;8.00;;;;;10.04;49.08;97668.75;4892798;28;102715;-77
2020/12/03 15:19:55;;;;;;;;;9.50;7.75;;;;;10.04;48.98;97663.34;4897028;28;102602;-76
2020/12/03 15:22:23;;;;;;;;;11.50;9.50;;;;;10.04;49.59;97647.13;4900367;28;104281;-76
2020/12/03 15:24:49;;;;;;;;;10.75;9.50;;;;;10.01;48.94;97643.00;4902545;28;104080;-76
2020/12/03 15:27:16;;;;;;;;;9.00;8.00;;;;;10.02;48.75;97652.75;4903504;28;102591;-77
2020/12/03 15:29:43;;;;;;;;;11.50;9.00;;;;;10.01;48.93;97650.25;4898010;28;102630;-77
2020/12/03 15:32:10;;;;;;;;;9.75;9.25;;;;;10.01;49.08;97651.09;4896268;28;104249;-77
2020/12/03 15:34:36;;;;;;;;;10.00;9.00;;;;;10.00;49.06;97643.19;4895618;28;102321;-76
2020/12/03 15:37:04;;;;;;;;;11.25;8.00;;;;;10.00;49.54;97632.41;4887785;28;103674;-77
2020/12/03 15:39:33;;;;;;;;;12.50;10.00;;;;;10.00;49.76;97627.00;4884957;28;103742;-76
2020/12/03 15:42:06;;;;;;;;;8.25;7.75;;;;;9.98;49.47;97627.22;4891673;28;104414;-76
2020/12/03 15:44:43;;;;;;;;;16.25;10.00;;;;;9.99;49.91;97631.59;4872840;28;102156;-76
2020/12/03 15:47:11;;;;;;;;;12.00;9.75;;;;;9.96;49.29;97626.63;4885202;28;102874;-77
2020/12/03 15:49:38;;;;;;;;;12.00;11.25;;;;;9.97;48.99;97632.84;4884603;28;102640;-77
2020/12/03 15:52:06;;;;;;;;;13.50;9.25;;;;;9.98;49.45;97639.91;4879059;28;104133;-77
2020/12/03 15:54:33;;;;;;;;;12.50;10.50;;;;;9.96;48.81;97628.47;4884387;28;102582;-76
2020/12/03 15:57:00;;;;;;;;;11.75;11.00;;;;;9.96;49.52;97634.72;4886025;28;102748;-77
2020/12/03 15:59:27;;;;;;;;;10.00;9.00;;;;;9.95;49.34;97634.97;4880904;28;102642;-77
2020/12/03 16:01:58;;;;;;;;;27.00;21.25;;;;;9.85;49.03;97647.06;4880857;28;108696;-84
2020/12/03 16:04:26;;;;;;;;;19.75;14.50;;;;;9.88;50.14;97650.38;4892571;28;102571;-83
2020/12/03 16:06:53;;;;;;;;;22.00;16.00;;;;;10.04;50.11;97649.84;4884573;28;102699;-76
2020/12/03 16:09:20;;;;;;;;;17.75;16.00;;;;;10.11;49.31;97650.59;4883759;28;102642;-77
2020/12/03 16:11:47;;;;;;;;;19.75;16.75;;;;;10.17;48.16;97647.06;4886880;28;104080;-76
2020/12/03 16:14:13;;;;;;;;;26.00;23.25;;;;;10.22;48.58;97641.81;4887194;28;102244;-77
2020/12/03 16:16:40;;;;;;;;;25.50;22.75;;;;;10.29;48.26;97647.97;4885963;28;102651;-76
2020/12/03 16:19:07;;;;;;;;;22.75;19.50;;;;;10.35;48.58;97647.09;4882320;28;102678;-78
2020/12/03 16:21:34;;;;;;;;;28.25;20.25;;;;;10.43;48.29;97643.25;4893385;28;104296;-76
2020/12/03 16:24:01;;;;;;;;;21.25;17.50;;;;;10.41;48.64;97646.19;4886972;28;104141;-77
2020/12/03 16:26:31;;;;;;;;;18.75;18.75;;;;;10.39;48.81;97634.78;4893577;28;103922;-77
2020/12/03 16:28:57;;;;;;;;;23.50;20.00;;;;;10.37;48.83;97644.13;4893280;28;102228;-76
2020/12/03 16:31:53;;;;;;;;;26.75;21.25;;;;;10.32;48.87;97639.41;4889976;28;103817;-76
2020/12/03 16:34:20;;;;;;;;;22.75;20.00;;;;;10.29;48.91;97637.16;4890849;28;102247;-76
2020/12/03 16:36:47;;;;;;;;;17.50;16.75;;;;;10.27;49.15;97633.84;4900625;28;102833;-76
2020/12/03 16:39:14;;;;;;;;;24.50;20.00;;;;;10.25;48.79;97639.50;4872055;28;102676;-76
2020/12/03 16:41:43;;;;;;;;;21.25;19.25;;;;;10.23;48.88;97638.88;4872918;28;104075;-76
2020/12/03 16:44:10;;;;;;;;;22.50;18.75;;;;;10.21;48.72;97624.78;4872963;28;103938;-76
2020/12/03 16:46:37;;;;;;;;;21.75;18.50;;;;;10.21;48.83;97640.16;4874940;28;102653;-77
2020/12/03 16:49:04;;;;;;;;;25.75;20.00;;;;;10.24;48.78;97639.69;4878293;28;108466;-79
2020/12/03 16:51:30;;;;;;;;;21.75;18.25;;;;;10.35;50.12;97630.88;4867116;28;104076;-80
2020/12/03 16:53:57;;;;;;;;;22.50;19.50;;;;;10.51;53.42;97613.22;4876656;28;106200;-80
2020/12/03 16:56:26;;;;;;;;;20.25;16.25;;;;;10.64;54.79;97607.66;4872655;28;102523;-79
2020/12/03 16:58:53;;;;;;;;;17.00;14.00;;;;;10.70;55.37;97614.91;4874663;28;102734;-79
2020/12/03 17:01:20;;;;;;;;;20.75;16.25;;;;;10.76;55.42;97605.06;4878194;28;104139;-79
2020/12/03 17:03:47;;;;;;;;;21.00;17.00;;;;;10.83;55.86;97600.38;4885274;28;102151;-80
2020/12/03 17:06:13;;;;;;;;;19.25;16.75;;;;;10.87;55.82;97597.00;4870764;28;102603;-80
2020/12/03 17:08:40;;;;;;;;;21.50;19.25;;;;;10.95;55.72;97603.97;4876372;28;102738;-80
2020/12/03 17:11:07;;;;;;;;;22.25;16.25;;;;;11.03;55.88;97606.38;4872751;28;104340;-80
2020/12/03 17:13:34;;;;;;;;;19.25;18.25;;;;;11.16;55.71;97579.16;4865491;28;102860;-81
2020/12/03 17:16:02;;;;;;;;;23.75;18.00;;;;;11.33;55.43;97587.44;4872611;28;102559;-81
2020/12/03 17:18:28;;;;;;;;;17.00;16.00;;;;;11.47;55.23;97592.44;4858864;28;103138;-77
2020/12/03 17:20:55;;;;;;;;;20.25;19.00;;;;;11.72;54.97;97580.56;4876509;28;104343;-87
2020/12/03 17:23:22;;;;;;;;;20.00;20.00;;;;;11.88;54.76;97575.34;4872016;28;103628;-83
2020/12/03 17:25:50;;;;;;;;;21.00;17.50;;;;;12.05;54.45;97584.41;4871052;28;102596;-80
2020/12/03 17:28:17;;;;;;;;;21.00;16.75;;;;;12.22;53.74;97575.56;4879659;28;104235;-84
2020/12/03 17:30:43;;;;;;;;;28.50;28.25;;;;;12.39;53.12;97574.59;4881524;28;104226;-83
2020/12/03 17:33:11;;;;;;;;;29.25;24.00;;;;;12.52;53.58;97559.97;4875487;28;102817;-83
2020/12/03 17:35:38;;;;;;;;;23.25;17.25;;;;;12.68;52.82;97569.25;4864424;28;105963;-82
2020/12/03 17:38:05;;;;;;;;;17.75;16.50;;;;;12.82;53.05;97566.03;4872873;28;102638;-82
2020/12/03 17:40:32;;;;;;;;;30.75;25.50;;;;;13.02;51.81;97562.06;4858476;28;105268;-83
2020/12/03 17:42:58;;;;;;;;;39.00;32.50;;;;;13.19;52.20;97563.78;4880077;28;102781;-79
2020/12/03 17:45:26;;;;;;;;;33.75;25.75;;;;;13.32;53.01;97547.22;4883734;28;102704;-81
2020/12/03 17:47:52;;;;;;;;;25.50;21.50;;;;;13.44;51.30;97554.47;4888388;28;102645;-80
2020/12/03 17:50:19;;;;;;;;;25.00;21.00;;;;;13.54;52.28;97566.34;4873967;28;104801;-83
2020/12/03 17:52:46;;;;;;;;;23.00;20.00;;;;;13.66;51.46;97563.56;4877287;28;107480;-82
2020/12/03 17:55:13;;;;;;;;;29.50;20.75;;;;;13.75;50.92;97546.59;4870063;28;102466;-83
2020/12/03 17:57:39;;;;;;;;;26.00;21.00;;;;;13.85;50.57;97548.66;4881682;28;102857;-83
2020/12/03 18:00:07;;;;;;;;;24.75;22.00;;;;;13.99;51.31;97569.00;4880119;28;104737;-84
2020/12/03 18:02:34;;;;;;;;;22.25;19.75;;;;;14.11;50.15;97563.47;4891871;28;102458;-83
2020/12/03 18:05:03;;;;;;;;;26.75;19.25;;;;;14.19;50.05;97563.84;4890240;28;102625;-83
2020/12/03 18:07:29;;;;;;;;;20.00;19.00;;;;;14.27;49.67;97559.91;4887913;28;102757;-84
2020/12/03 18:09:56;;;;;;;;;22.50;20.00;;;;;14.35;50.20;97558.66;4892508;28;104078;-85
2020/12/03 18:12:23;;;;;;;;;24.75;21.00;;;;;14.43;49.44;97560.97;4886995;28;102211;-81
2020/12/03 18:14:50;;;;;;;;;19.00;17.50;;;;;14.52;49.71;97560.28;4889105;28;102718;-80
2020/12/03 18:17:16;;;;;;;;;19.75;18.75;;;;;14.62;49.72;97559.59;4883561;28;102511;-79
2020/12/03 18:19:43;;;;;;;;;22.25;18.50;;;;;14.71;49.75;97561.63;4886547;28;104184;-79
2020/12/03 18:22:09;;;;;;;;;21.00;19.50;;;;;14.82;49.49;97568.00;4886252;28;102719;-79
2020/12/03 18:24:36;;;;;;;;;21.00;19.25;;;;;14.90;49.79;97572.22;4884228;28;103898;-80
2020/12/03 18:27:03;;;;;;;;;23.00;20.00;;;;;14.99;49.06;97563.34;4897467;28;102549;-83
2020/12/03 18:29:30;;;;;;;;;23.75;22.00;;;;;15.06;48.88;97569.41;4888438;28;103714;-83
2020/12/03 18:31:57;;;;;;;;;21.75;20.25;;;;;15.13;48.96;97567.28;4893372;28;102512;-84
2020/12/03 18:34:27;;;;;;;;;20.00;18.00;;;;;15.22;48.69;97562.22;4873697;28;103885;-84
2020/12/03 18:36:54;;;;;;;;;34.00;29.25;;;;;15.44;49.42;97560.28;4880134;28;102591;-83
2020/12/03 18:39:21;;;;;;;;;40.50;33.50;;;;;15.53;47.97;97555.22;4858299;28;104115;-88
2020/12/03 18:41:53;;;;;;;;;41.75;35.75;;;;;15.67;47.74;97553.69;4878324;28;102752;-82
2020/12/03 18:44:20;;;;;;;;;40.00;34.75;;;;;15.72;47.46;97544.75;4874384;28;102950;-84
2020/12/03 18:46:50;;;;;;;;;40.25;35.50;;;;;15.78;47.73;97533.66;4881605;28;104228;-81
2020/12/03 18:49:17;;;;;;;;;41.50;34.00;;;;;15.84;47.33;97534.50;4871086;28;108788;-81
2020/12/03 18:51:44;;;;;;;;;43.00;36.00;;;;;15.89;47.11;97540.00;4879181;28;102662;-81
2020/12/03 18:54:11;;;;;;;;;36.00;32.25;;;;;15.93;47.01;97541.13;4885727;28;102579;-81
2020/12/03 18:56:37;;;;;;;;;38.75;34.75;;;;;15.99;46.91;97554.53;4878684;28;102732;-82
2020/12/03 18:59:05;;;;;;;;;38.50;34.00;;;;;16.03;46.69;97547.47;4863855;28;105469;-82
2020/12/03 19:01:32;;;;;;;;;40.25;35.25;;;;;16.09;46.73;97545.59;4871011;28;102581;-82
2020/12/03 19:04:04;;;;;;;;;46.25;33.75;;;;;16.13;46.34;97545.88;4869693;28;102474;-81
2020/12/03 19:06:32;;;;;;;;;43.75;35.50;;;;;16.20;46.48;97546.50;4875078;28;109581;-79
2020/12/03 19:08:59;;;;;;;;;42.75;35.00;;;;;16.27;46.29;97549.81;4881710;28;104178;-78
2020/12/03 19:11:30;;;;;;;;;36.50;32.00;;;;;16.34;46.57;97536.78;4884021;28;102574;-77
2020/12/03 19:13:57;;;;;;;;;36.00;31.25;;;;;16.44;46.58;97534.09;4871197;28;103666;-80
2020/12/03 19:16:24;;;;;;;;;40.50;34.25;;;;;16.54;46.33;97545.06;4864183;28;102906;-81